createdAt,value
2019-05-06T00:01:36.375Z,6.40
2019-05-06T00:06:43.891Z,5.90
2019-05-06T00:11:48.842Z,6.67
2019-05-06T00:16:55.101Z,6.80
2019-05-06T00:22:01.534Z,6.90
2019-05-06T00:27:14.921Z,6.62
2019-05-06T00:32:20.221Z,6.97
2019-05-06T00:37:25.596Z,6.93
2019-05-06T00:42:39.199Z,6.85
2019-05-06T00:47:44.551Z,6.97
2019-05-06T00:52:51.146Z,7.15
2019-05-06T00:57:57.501Z,7.15
2019-05-06T01:03:05.370Z,7.55
2019-05-06T01:08:10.791Z,7.40
2019-05-06T01:13:41.146Z,7.50
2019-05-06T01:18:46.592Z,7.40
2019-05-06T01:23:54.488Z,7.72
2019-05-06T01:28:59.900Z,7.90
2019-05-06T01:34:05.306Z,7.60
2019-05-06T01:39:44.755Z,7.85
2019-05-06T01:44:50.249Z,8.03
2019-05-06T01:49:55.666Z,7.93
2019-05-06T01:55:01.072Z,8.18
2019-05-06T02:00:08.061Z,8.05
2019-05-06T02:05:15.298Z,7.70
2019-05-06T02:10:20.514Z,8.10
2019-05-06T02:15:26.817Z,7.80
2019-05-06T02:20:34.021Z,7.72
2019-05-06T02:25:44.676Z,7.10
2019-05-06T02:31:07.820Z,7.50
2019-05-06T02:36:20.683Z,7.87
2019-05-06T02:41:26.012Z,7.70
2019-05-06T02:46:33.799Z,8.40
2019-05-06T02:51:38.562Z,8.25
2019-05-06T02:56:43.818Z,7.67
2019-05-06T03:01:49.832Z,7.67
2019-05-06T03:06:55.305Z,8.25
2019-05-06T03:12:03.390Z,7.60
2019-05-06T03:17:07.618Z,8.08
2019-05-06T03:22:34.880Z,8.60
2019-05-06T03:27:46.504Z,9.00
2019-05-06T03:33:27.530Z,9.17
2019-05-06T03:37:56.363Z,7.85
2019-05-06T03:43:02.802Z,7.83
2019-05-06T03:48:13.668Z,7.27
2019-05-06T03:53:19.282Z,7.23
2019-05-06T03:58:26.815Z,7.25
2019-05-06T04:03:43.857Z,7.90
2019-05-06T04:08:43.465Z,7.55
2019-05-06T04:13:49.367Z,7.78
2019-05-06T04:19:12.830Z,8.07
2019-05-06T04:24:36.127Z,8.10
2019-05-06T04:29:42.837Z,8.23
2019-05-06T04:34:48.278Z,7.90
2019-05-06T04:39:54.077Z,38.90
2019-05-06T04:44:59.971Z,14.50
2019-05-06T04:50:07.584Z,12.00
2019-05-06T04:59:05.814Z,12.83
2019-05-06T05:04:26.866Z,14.05
2019-05-06T05:09:18.527Z,14.03
2019-05-06T05:14:42.316Z,14.50
2019-05-06T05:19:47.662Z,17.07
2019-05-06T05:24:52.978Z,17.37
2019-05-06T05:29:58.326Z,16.20
2019-05-06T05:35:03.986Z,15.65
2019-05-06T05:40:09.684Z,14.70
2019-05-06T05:45:15.284Z,15.60
2019-05-06T05:50:29.002Z,15.33
2019-05-06T05:55:35.115Z,17.60
2019-05-06T06:00:42.577Z,19.73
2019-05-06T06:05:48.284Z,19.55
2019-05-06T06:11:15.599Z,19.23
2019-05-06T06:16:34.954Z,20.70
2019-05-06T06:21:43.821Z,21.13
2019-05-06T06:26:49.243Z,21.10
2019-05-06T06:32:16.921Z,22.03
2019-05-06T06:37:47.153Z,22.43
2019-05-06T06:42:56.530Z,20.68
2019-05-06T06:48:03.070Z,20.13
2019-05-06T06:53:09.544Z,18.10
2019-05-06T06:58:29.283Z,18.23
2019-05-06T07:03:44.225Z,16.80
2019-05-06T07:08:51.823Z,16.03
2019-05-06T07:13:57.775Z,15.13
2019-05-06T07:19:03.385Z,13.43
2019-05-06T07:24:08.633Z,12.70
2019-05-06T07:29:21.689Z,11.97
2019-05-06T07:34:22.892Z,10.53
2019-05-06T07:39:28.227Z,10.85
2019-05-06T07:45:07.399Z,11.08
2019-05-06T07:50:13.296Z,10.25
2019-05-06T07:55:18.918Z,5.20
2019-05-06T08:00:25.590Z,7.60
2019-05-06T08:05:33.278Z,6.65
2019-05-06T08:10:38.528Z,7.90
2019-05-06T08:15:43.944Z,6.77
2019-05-06T08:20:49.335Z,6.25
2019-05-06T08:26:09.040Z,6.93
2019-05-06T08:31:02.392Z,6.83
2019-05-06T08:36:14.531Z,7.78
2019-05-06T08:41:17.901Z,7.10
2019-05-06T08:46:23.730Z,6.85
2019-05-06T08:51:36.065Z,5.53
2019-05-06T08:56:42.707Z,6.30
2019-05-06T09:01:49.765Z,6.00
2019-05-06T09:06:55.143Z,6.83
2019-05-06T09:12:02.464Z,6.27
2019-05-06T09:17:07.876Z,5.63
2019-05-06T09:22:13.220Z,5.80
2019-05-06T09:27:24.728Z,5.80
2019-05-06T09:32:38.026Z,4.47
2019-05-06T09:37:43.230Z,5.00
2019-05-06T09:42:48.564Z,4.25
2019-05-06T09:48:09.645Z,4.80
2019-05-06T09:53:26.372Z,4.30
2019-05-06T09:58:32.576Z,4.30
2019-05-06T10:03:38.265Z,4.40
2019-05-06T10:08:43.510Z,4.10
2019-05-06T10:13:49.090Z,4.25
2019-05-06T10:18:54.714Z,4.90
2019-05-06T10:24:02.198Z,4.23
2019-05-06T10:29:27.830Z,4.37
2019-05-06T10:34:33.083Z,4.25
2019-05-06T10:39:42.876Z,4.35
2019-05-06T10:44:56.163Z,4.22
2019-05-06T10:50:02.217Z,4.67
2019-05-06T10:55:08.551Z,4.30
2019-05-06T11:00:14.224Z,4.27
2019-05-06T11:05:20.434Z,4.37
2019-05-06T11:14:08.558Z,3.90
2019-05-06T11:19:13.957Z,4.37
2019-05-06T11:24:19.270Z,3.72
2019-05-06T11:29:29.419Z,4.10
2019-05-06T11:34:55.299Z,4.90
2019-05-06T11:40:00.630Z,4.20
2019-05-06T11:45:06.954Z,4.60
2019-05-06T11:50:13.074Z,4.33
2019-05-06T11:55:28.859Z,4.45
2019-05-06T12:00:35.983Z,4.33
2019-05-06T12:05:41.859Z,4.10
2019-05-06T12:10:47.147Z,4.10
2019-05-06T12:15:52.542Z,4.65
2019-05-06T12:21:08.167Z,4.10
2019-05-06T12:26:05.060Z,4.00
2019-05-06T12:31:12.507Z,4.20
2019-05-06T12:36:26.695Z,4.00
2019-05-06T12:41:33.560Z,3.30
2019-05-06T12:47:03.331Z,4.03
2019-05-06T12:52:09.282Z,3.67
2019-05-06T12:57:14.506Z,4.03
2019-05-06T13:02:23.557Z,5.00
2019-05-06T13:07:35.066Z,4.65
2019-05-06T13:12:42.592Z,4.55
2019-05-06T13:17:49.759Z,3.95
2019-05-06T13:23:08.116Z,3.90
2019-05-06T13:28:12.762Z,3.98
2019-05-06T13:33:39.685Z,4.12
2019-05-06T13:38:45.125Z,5.17
2019-05-06T13:44:08.501Z,5.78
2019-05-06T13:49:31.576Z,5.08
2019-05-06T13:54:38.764Z,4.90
2019-05-06T13:59:44.470Z,4.47
2019-05-06T14:04:52.508Z,4.87
2019-05-06T14:09:57.163Z,5.00
2019-05-06T14:15:04.416Z,4.80
2019-05-06T14:20:12.510Z,5.13
2019-05-06T14:25:43.217Z,6.25
2019-05-06T14:31:03.338Z,6.70
2019-05-06T14:36:08.743Z,6.75
2019-05-06T14:41:18.166Z,7.00
2019-05-06T14:46:23.517Z,7.67
2019-05-06T14:51:28.895Z,6.92
2019-05-06T14:56:45.582Z,6.60
2019-05-06T15:01:53.697Z,6.25
2019-05-06T15:06:58.102Z,6.50
2019-05-06T15:12:03.409Z,6.33
2019-05-06T15:17:10.181Z,6.35
2019-05-06T15:22:16.233Z,6.03
2019-05-06T15:27:22.716Z,6.50
2019-05-06T15:32:38.918Z,6.33
2019-05-06T15:37:56.266Z,6.23
2019-05-06T15:43:02.179Z,6.33
2019-05-06T15:48:07.805Z,5.87
2019-05-06T15:53:13.094Z,6.20
2019-05-06T15:58:19.063Z,5.30
2019-05-06T16:03:24.770Z,5.70
2019-05-06T16:08:32.057Z,5.92
2019-05-06T16:13:38.028Z,5.37
2019-05-06T16:18:43.879Z,6.70
2019-05-06T16:23:57.549Z,5.72
2019-05-06T16:29:03.254Z,5.90
2019-05-06T16:34:08.631Z,5.53
2019-05-06T16:39:13.909Z,5.85
2019-05-06T16:44:19.310Z,5.85
2019-05-06T16:49:24.610Z,6.20
2019-05-06T16:54:31.535Z,6.33
2019-05-06T16:59:37.794Z,9.17
2019-05-06T17:05:03.453Z,5.62
2019-05-06T17:10:11.747Z,6.05
2019-05-06T17:15:18.611Z,7.30
2019-05-06T17:20:23.843Z,6.15
2019-05-06T17:25:29.177Z,7.50
2019-05-06T17:30:43.069Z,7.97
2019-05-06T17:35:48.550Z,6.95
2019-05-06T17:40:53.880Z,6.83
2019-05-06T17:46:03.760Z,7.22
2019-05-06T17:51:29.611Z,5.35
2019-05-06T17:56:34.902Z,5.90
2019-05-06T18:01:43.980Z,5.47
2019-05-06T18:06:49.632Z,5.20
2019-05-06T18:11:58.909Z,4.50
2019-05-06T18:17:03.734Z,6.10
2019-05-06T18:22:09.123Z,6.70
2019-05-06T18:27:14.420Z,7.07
2019-05-06T18:32:20.727Z,6.83
2019-05-06T18:37:29.082Z,6.78
2019-05-06T18:42:34.676Z,5.62
2019-05-06T18:47:42.229Z,6.67
2019-05-06T18:52:47.663Z,7.37
2019-05-06T18:57:53.727Z,7.20
2019-05-06T19:02:59.512Z,7.03
2019-05-06T19:08:09.915Z,7.53
2019-05-06T19:13:17.672Z,7.90
2019-05-06T19:18:23.020Z,7.55
2019-05-06T19:23:28.400Z,7.47
2019-05-06T19:28:33.967Z,8.10
2019-05-06T19:33:39.604Z,8.35
2019-05-06T19:38:44.917Z,8.65
2019-05-06T19:43:52.398Z,9.97
2019-05-06T19:48:59.037Z,8.83
2019-05-06T19:54:05.012Z,8.83
2019-05-06T19:59:12.954Z,9.25
2019-05-06T20:04:18.498Z,11.07
2019-05-06T20:09:46.441Z,9.98
2019-05-06T20:14:52.574Z,11.18
2019-05-06T20:19:58.470Z,12.28
2019-05-06T20:25:05.304Z,11.50
2019-05-06T20:30:11.143Z,11.40
2019-05-06T20:35:16.981Z,11.33
2019-05-06T20:40:23.258Z,12.30
2019-05-06T20:45:32.513Z,11.55
2019-05-06T20:50:36.551Z,11.83
2019-05-06T20:55:43.420Z,11.97
2019-05-06T21:00:49.685Z,10.97
2019-05-06T21:05:56.213Z,10.15
2019-05-06T21:11:04.075Z,10.60
2019-05-06T21:16:09.086Z,10.90
2019-05-06T21:21:14.676Z,9.25
2019-05-06T21:26:22.075Z,9.20
2019-05-06T21:31:27.152Z,9.10
2019-05-06T21:36:32.457Z,10.40
2019-05-06T21:41:38.016Z,10.00
2019-05-06T21:46:43.541Z,10.93
2019-05-06T21:51:49.222Z,10.45
2019-05-06T21:56:54.517Z,8.88
2019-05-06T22:01:59.840Z,9.03
2019-05-06T22:07:05.076Z,8.90
2019-05-06T22:12:10.441Z,9.55
2019-05-06T22:17:15.728Z,9.33
2019-05-06T22:22:23.443Z,10.25
2019-05-06T22:27:29.621Z,9.95
2019-05-06T22:32:45.625Z,10.08
2019-05-06T22:37:52.934Z,10.08
2019-05-06T22:42:58.014Z,9.80
2019-05-06T22:48:04.572Z,10.18
2019-05-06T22:53:10.128Z,10.55
2019-05-06T22:58:15.487Z,10.50
2019-05-06T23:03:22.854Z,10.93
2019-05-06T23:08:28.019Z,10.10
2019-05-06T23:13:33.322Z,10.95
2019-05-06T23:18:38.554Z,11.50
2019-05-06T23:23:44.190Z,11.63
2019-05-06T23:28:49.422Z,11.90
2019-05-06T23:33:54.831Z,11.53
2019-05-06T23:39:37.202Z,11.85
2019-05-06T23:45:17.828Z,11.60
2019-05-06T23:50:58.678Z,10.88
2019-05-06T23:56:39.957Z,11.53
